Nadym, Russia
Current Conditions -  °F | °C
As of 12:00 AM on Sunday 26 Oct 2014 (Local Time) from USRR Reporting Station
Broken Clouds Broken Clouds  
Wind Chill: -20°   Ceiling: 1600
Heat Index: -6°   Visibility: 4mi
Dew Point: -9°   Wind: 7mph
Humidity: 84%   Direction: 280°W
Pressure: 29.59"   Gusts: NA
Location:  65.53°N, 72.52°E
Report Text: USRR 251900Z 28003MPS 6000 SCT005 BKN016 M21/M23 Q1002 TEMPO2000 SN BR BKN005 RMK QBB170 OBST OBSC QFE746 25////50
Loading
Personal Weather Stations






























Interactive Weather Map
Tropical Storm Tracking
New forecast layout! Learn more

10-Day Weather Forecast

Advertisements
Track Severe Weather on mobile